sensor_id;sensor_type;location;lat;lon;timestamp;P1;durP1;ratioP1;P2;durP2;ratioP2
2201;SDS011;1107;48.654;9.250;2023-08-06T00:01:33;17.17;;;15.40;;
2201;SDS011;1107;48.654;9.250;2023-08-06T00:04:00;16.30;;;14.77;;
2201;SDS011;1107;48.654;9.250;2023-08-06T00:06:27;14.47;;;12.97;;
2201;SDS011;1107;48.654;9.250;2023-08-06T00:08:55;15.43;;;14.00;;
2201;SDS011;1107;48.654;9.250;2023-08-06T00:11:22;14.47;;;13.37;;
2201;SDS011;1107;48.654;9.250;2023-08-06T00:13:49;14.23;;;13.10;;
2201;SDS011;1107;48.654;9.250;2023-08-06T00:16:16;13.73;;;12.63;;
2201;SDS011;1107;48.654;9.250;2023-08-06T00:18:43;12.70;;;11.60;;
2201;SDS011;1107;48.654;9.250;2023-08-06T00:21:10;13.40;;;12.30;;
2201;SDS011;1107;48.654;9.250;2023-08-06T00:23:38;12.57;;;11.57;;
2201;SDS011;1107;48.654;9.250;2023-08-06T00:26:06;11.83;;;10.93;;
2201;SDS011;1107;48.654;9.250;2023-08-06T00:28:33;11.47;;;10.77;;
2201;SDS011;1107;48.654;9.250;2023-08-06T00:31:00;12.70;;;11.70;;
2201;SDS011;1107;48.654;9.250;2023-08-06T00:33:27;15.40;;;11.07;;
2201;SDS011;1107;48.654;9.250;2023-08-06T00:35:54;12.90;;;11.90;;
2201;SDS011;1107;48.654;9.250;2023-08-06T00:38:20;12.63;;;11.83;;
2201;SDS011;1107;48.654;9.250;2023-08-06T00:40:47;10.77;;;10.17;;
2201;SDS011;1107;48.654;9.250;2023-08-06T00:43:16;9.80;;;9.33;;
2201;SDS011;1107;48.654;9.250;2023-08-06T00:45:43;8.30;;;7.80;;
2201;SDS011;1107;48.654;9.250;2023-08-06T00:48:10;8.60;;;8.20;;
2201;SDS011;1107;48.654;9.250;2023-08-06T00:50:37;7.60;;;7.20;;
2201;SDS011;1107;48.654;9.250;2023-08-06T00:53:04;6.57;;;6.27;;
2201;SDS011;1107;48.654;9.250;2023-08-06T00:55:31;5.93;;;5.63;;
2201;SDS011;1107;48.654;9.250;2023-08-06T00:57:59;6.40;;;6.10;;
2201;SDS011;1107;48.654;9.250;2023-08-06T01:00:28;6.00;;;5.60;;
2201;SDS011;1107;48.654;9.250;2023-08-06T01:02:55;5.07;;;4.87;;
2201;SDS011;1107;48.654;9.250;2023-08-06T01:05:22;5.80;;;5.50;;
2201;SDS011;1107;48.654;9.250;2023-08-06T01:07:51;5.70;;;5.40;;
2201;SDS011;1107;48.654;9.250;2023-08-06T01:10:34;5.67;;;5.37;;
2201;SDS011;1107;48.654;9.250;2023-08-06T01:13:13;5.50;;;5.10;;
2201;SDS011;1107;48.654;9.250;2023-08-06T01:15:49;6.27;;;5.67;;
2201;SDS011;1107;48.654;9.250;2023-08-06T01:18:18;6.00;;;5.70;;
2201;SDS011;1107;48.654;9.250;2023-08-06T01:20:47;6.20;;;5.90;;
2201;SDS011;1107;48.654;9.250;2023-08-06T01:23:14;6.30;;;5.80;;
2201;SDS011;1107;48.654;9.250;2023-08-06T01:25:43;8.07;;;6.63;;
2201;SDS011;1107;48.654;9.250;2023-08-06T01:28:22;7.27;;;6.77;;
2201;SDS011;1107;48.654;9.250;2023-08-06T01:30:54;6.90;;;6.60;;
2201;SDS011;1107;48.654;9.250;2023-08-06T01:33:24;7.40;;;7.00;;
2201;SDS011;1107;48.654;9.250;2023-08-06T01:35:54;6.50;;;6.03;;
2201;SDS011;1107;48.654;9.250;2023-08-06T01:38:23;6.40;;;6.03;;
2201;SDS011;1107;48.654;9.250;2023-08-06T01:40:53;6.47;;;5.30;;
2201;SDS011;1107;48.654;9.250;2023-08-06T01:43:20;5.40;;;5.10;;
2201;SDS011;1107;48.654;9.250;2023-08-06T01:45:47;5.57;;;5.27;;
2201;SDS011;1107;48.654;9.250;2023-08-06T01:48:14;6.63;;;6.33;;
2201;SDS011;1107;48.654;9.250;2023-08-06T01:50:40;6.07;;;5.77;;
2201;SDS011;1107;48.654;9.250;2023-08-06T01:53:09;6.43;;;6.00;;
2201;SDS011;1107;48.654;9.250;2023-08-06T01:55:36;6.00;;;5.50;;
2201;SDS011;1107;48.654;9.250;2023-08-06T01:58:02;5.97;;;5.67;;
2201;SDS011;1107;48.654;9.250;2023-08-06T02:00:29;5.93;;;5.63;;
2201;SDS011;1107;48.654;9.250;2023-08-06T02:02:56;6.13;;;5.83;;
2201;SDS011;1107;48.654;9.250;2023-08-06T02:05:23;6.60;;;6.10;;
2201;SDS011;1107;48.654;9.250;2023-08-06T02:07:50;7.53;;;5.50;;
2201;SDS011;1107;48.654;9.250;2023-08-06T02:10:18;6.10;;;5.70;;
2201;SDS011;1107;48.654;9.250;2023-08-06T02:12:45;5.97;;;5.47;;
2201;SDS011;1107;48.654;9.250;2023-08-06T02:15:12;5.33;;;5.13;;
2201;SDS011;1107;48.654;9.250;2023-08-06T02:17:39;6.10;;;5.80;;
2201;SDS011;1107;48.654;9.250;2023-08-06T02:20:06;6.20;;;5.80;;
2201;SDS011;1107;48.654;9.250;2023-08-06T02:22:34;6.43;;;5.90;;
2201;SDS011;1107;48.654;9.250;2023-08-06T02:25:01;6.00;;;5.70;;
2201;SDS011;1107;48.654;9.250;2023-08-06T02:27:29;5.37;;;5.07;;
2201;SDS011;1107;48.654;9.250;2023-08-06T02:29:56;5.30;;;5.00;;
2201;SDS011;1107;48.654;9.250;2023-08-06T02:32:23;5.20;;;5.00;;
2201;SDS011;1107;48.654;9.250;2023-08-06T02:34:50;4.47;;;4.27;;
2201;SDS011;1107;48.654;9.250;2023-08-06T02:37:17;4.23;;;4.03;;
2201;SDS011;1107;48.654;9.250;2023-08-06T02:39:44;4.70;;;4.50;;
2201;SDS011;1107;48.654;9.250;2023-08-06T02:42:11;4.50;;;4.10;;
2201;SDS011;1107;48.654;9.250;2023-08-06T02:44:39;4.53;;;4.20;;
2201;SDS011;1107;48.654;9.250;2023-08-06T02:47:06;4.20;;;4.00;;
2201;SDS011;1107;48.654;9.250;2023-08-06T02:49:33;4.40;;;4.20;;
2201;SDS011;1107;48.654;9.250;2023-08-06T02:52:00;4.47;;;4.17;;
2201;SDS011;1107;48.654;9.250;2023-08-06T02:54:26;8.00;;;4.17;;
2201;SDS011;1107;48.654;9.250;2023-08-06T02:56:53;4.83;;;4.40;;
2201;SDS011;1107;48.654;9.250;2023-08-06T02:59:20;4.00;;;3.80;;
2201;SDS011;1107;48.654;9.250;2023-08-06T03:01:49;3.90;;;3.70;;
2201;SDS011;1107;48.654;9.250;2023-08-06T03:04:15;4.33;;;4.13;;
2201;SDS011;1107;48.654;9.250;2023-08-06T03:06:43;5.20;;;4.90;;
2201;SDS011;1107;48.654;9.250;2023-08-06T03:09:10;5.90;;;4.60;;
2201;SDS011;1107;48.654;9.250;2023-08-06T03:11:37;5.23;;;4.90;;
2201;SDS011;1107;48.654;9.250;2023-08-06T03:14:03;5.23;;;4.80;;
2201;SDS011;1107;48.654;9.250;2023-08-06T03:16:30;4.50;;;4.30;;
2201;SDS011;1107;48.654;9.250;2023-08-06T03:18:59;4.40;;;4.00;;
2201;SDS011;1107;48.654;9.250;2023-08-06T03:21:27;4.70;;;4.40;;
2201;SDS011;1107;48.654;9.250;2023-08-06T03:23:54;3.70;;;3.40;;
2201;SDS011;1107;48.654;9.250;2023-08-06T03:26:21;3.50;;;3.30;;
2201;SDS011;1107;48.654;9.250;2023-08-06T03:28:49;3.83;;;3.63;;
2201;SDS011;1107;48.654;9.250;2023-08-06T03:31:16;3.50;;;3.30;;
2201;SDS011;1107;48.654;9.250;2023-08-06T03:33:43;4.03;;;3.80;;
2201;SDS011;1107;48.654;9.250;2023-08-06T03:36:11;3.70;;;3.40;;
2201;SDS011;1107;48.654;9.250;2023-08-06T03:38:38;8.53;;;3.80;;
2201;SDS011;1107;48.654;9.250;2023-08-06T03:41:05;4.50;;;4.13;;
2201;SDS011;1107;48.654;9.250;2023-08-06T03:43:31;4.00;;;3.70;;
2201;SDS011;1107;48.654;9.250;2023-08-06T03:45:58;4.07;;;3.77;;
2201;SDS011;1107;48.654;9.250;2023-08-06T03:48:25;3.93;;;3.73;;
2201;SDS011;1107;48.654;9.250;2023-08-06T03:50:52;3.80;;;3.60;;
2201;SDS011;1107;48.654;9.250;2023-08-06T03:53:20;6.73;;;3.60;;
2201;SDS011;1107;48.654;9.250;2023-08-06T03:55:47;4.03;;;3.77;;
2201;SDS011;1107;48.654;9.250;2023-08-06T03:58:14;3.67;;;3.47;;
2201;SDS011;1107;48.654;9.250;2023-08-06T04:00:41;8.07;;;4.50;;
2201;SDS011;1107;48.654;9.250;2023-08-06T04:03:08;3.70;;;3.50;;
2201;SDS011;1107;48.654;9.250;2023-08-06T04:05:35;4.70;;;4.30;;
2201;SDS011;1107;48.654;9.250;2023-08-06T04:08:02;3.33;;;3.13;;
2201;SDS011;1107;48.654;9.250;2023-08-06T04:10:30;5.30;;;4.17;;
2201;SDS011;1107;48.654;9.250;2023-08-06T04:12:57;3.90;;;3.70;;
2201;SDS011;1107;48.654;9.250;2023-08-06T04:15:24;3.33;;;3.13;;
2201;SDS011;1107;48.654;9.250;2023-08-06T04:17:51;3.23;;;3.03;;
2201;SDS011;1107;48.654;9.250;2023-08-06T04:20:18;3.80;;;3.50;;
2201;SDS011;1107;48.654;9.250;2023-08-06T04:22:45;4.10;;;3.30;;
2201;SDS011;1107;48.654;9.250;2023-08-06T04:25:12;2.87;;;2.67;;
2201;SDS011;1107;48.654;9.250;2023-08-06T04:27:40;3.00;;;2.80;;
2201;SDS011;1107;48.654;9.250;2023-08-06T04:30:07;2.70;;;2.50;;
2201;SDS011;1107;48.654;9.250;2023-08-06T04:32:36;3.27;;;2.63;;
2201;SDS011;1107;48.654;9.250;2023-08-06T04:35:04;2.53;;;2.33;;
2201;SDS011;1107;48.654;9.250;2023-08-06T04:37:31;2.77;;;2.57;;
2201;SDS011;1107;48.654;9.250;2023-08-06T04:39:58;4.60;;;2.30;;
2201;SDS011;1107;48.654;9.250;2023-08-06T04:42:25;7.03;;;2.50;;
2201;SDS011;1107;48.654;9.250;2023-08-06T04:44:53;2.10;;;1.90;;
2201;SDS011;1107;48.654;9.250;2023-08-06T04:47:20;1.87;;;1.77;;
2201;SDS011;1107;48.654;9.250;2023-08-06T04:49:47;1.90;;;1.60;;
2201;SDS011;1107;48.654;9.250;2023-08-06T04:52:14;3.07;;;2.10;;
2201;SDS011;1107;48.654;9.250;2023-08-06T04:54:41;3.23;;;2.20;;
2201;SDS011;1107;48.654;9.250;2023-08-06T04:57:08;1.93;;;1.70;;
2201;SDS011;1107;48.654;9.250;2023-08-06T04:59:35;2.70;;;1.60;;
2201;SDS011;1107;48.654;9.250;2023-08-06T05:02:03;1.70;;;1.30;;
2201;SDS011;1107;48.654;9.250;2023-08-06T05:04:30;3.00;;;1.43;;
2201;SDS011;1107;48.654;9.250;2023-08-06T05:06:57;2.03;;;1.10;;
2201;SDS011;1107;48.654;9.250;2023-08-06T05:09:25;3.80;;;1.43;;
2201;SDS011;1107;48.654;9.250;2023-08-06T05:11:52;1.50;;;1.00;;
2201;SDS011;1107;48.654;9.250;2023-08-06T05:14:19;1.80;;;1.40;;
2201;SDS011;1107;48.654;9.250;2023-08-06T05:16:46;2.07;;;1.37;;
2201;SDS011;1107;48.654;9.250;2023-08-06T05:19:14;1.80;;;1.33;;
2201;SDS011;1107;48.654;9.250;2023-08-06T05:21:41;1.60;;;1.23;;
2201;SDS011;1107;48.654;9.250;2023-08-06T05:24:08;2.53;;;1.73;;
2201;SDS011;1107;48.654;9.250;2023-08-06T05:26:35;2.17;;;1.80;;
2201;SDS011;1107;48.654;9.250;2023-08-06T05:29:02;2.70;;;1.63;;
2201;SDS011;1107;48.654;9.250;2023-08-06T05:31:29;3.40;;;1.80;;
2201;SDS011;1107;48.654;9.250;2023-08-06T05:33:56;4.60;;;1.67;;
2201;SDS011;1107;48.654;9.250;2023-08-06T05:36:24;1.67;;;1.20;;
2201;SDS011;1107;48.654;9.250;2023-08-06T05:38:51;2.13;;;1.47;;
2201;SDS011;1107;48.654;9.250;2023-08-06T05:41:18;1.90;;;1.30;;
2201;SDS011;1107;48.654;9.250;2023-08-06T05:43:44;2.20;;;1.67;;
2201;SDS011;1107;48.654;9.250;2023-08-06T05:46:11;2.40;;;1.33;;
2201;SDS011;1107;48.654;9.250;2023-08-06T05:48:38;1.50;;;0.97;;
2201;SDS011;1107;48.654;9.250;2023-08-06T05:51:05;4.97;;;1.60;;
2201;SDS011;1107;48.654;9.250;2023-08-06T05:53:34;1.63;;;1.10;;
2201;SDS011;1107;48.654;9.250;2023-08-06T05:56:01;1.60;;;1.30;;
2201;SDS011;1107;48.654;9.250;2023-08-06T05:58:28;1.80;;;1.40;;
2201;SDS011;1107;48.654;9.250;2023-08-06T06:00:55;1.53;;;1.10;;
2201;SDS011;1107;48.654;9.250;2023-08-06T06:03:22;2.70;;;1.27;;
2201;SDS011;1107;48.654;9.250;2023-08-06T06:05:49;1.70;;;1.23;;
2201;SDS011;1107;48.654;9.250;2023-08-06T06:08:16;5.73;;;1.67;;
2201;SDS011;1107;48.654;9.250;2023-08-06T06:10:44;1.60;;;1.23;;
2201;SDS011;1107;48.654;9.250;2023-08-06T06:13:11;2.10;;;1.60;;
2201;SDS011;1107;48.654;9.250;2023-08-06T06:15:38;2.83;;;1.10;;
2201;SDS011;1107;48.654;9.250;2023-08-06T06:18:05;2.43;;;1.10;;
2201;SDS011;1107;48.654;9.250;2023-08-06T06:20:32;2.50;;;1.10;;
2201;SDS011;1107;48.654;9.250;2023-08-06T06:22:59;1.57;;;1.00;;
2201;SDS011;1107;48.654;9.250;2023-08-06T06:25:26;3.20;;;1.57;;
2201;SDS011;1107;48.654;9.250;2023-08-06T06:27:54;2.67;;;1.60;;
2201;SDS011;1107;48.654;9.250;2023-08-06T06:30:21;2.07;;;0.80;;
2201;SDS011;1107;48.654;9.250;2023-08-06T06:32:48;4.03;;;1.10;;
2201;SDS011;1107;48.654;9.250;2023-08-06T06:35:15;2.47;;;1.17;;
2201;SDS011;1107;48.654;9.250;2023-08-06T06:37:42;1.67;;;1.10;;
2201;SDS011;1107;48.654;9.250;2023-08-06T06:40:09;2.63;;;1.00;;
2201;SDS011;1107;48.654;9.250;2023-08-06T06:42:37;1.50;;;0.90;;
2201;SDS011;1107;48.654;9.250;2023-08-06T06:45:06;1.93;;;1.20;;
2201;SDS011;1107;48.654;9.250;2023-08-06T06:47:34;1.70;;;1.57;;
2201;SDS011;1107;48.654;9.250;2023-08-06T06:50:01;4.03;;;1.33;;
2201;SDS011;1107;48.654;9.250;2023-08-06T06:52:28;1.90;;;1.30;;
2201;SDS011;1107;48.654;9.250;2023-08-06T06:54:55;2.10;;;1.20;;
2201;SDS011;1107;48.654;9.250;2023-08-06T06:57:22;3.17;;;1.13;;
2201;SDS011;1107;48.654;9.250;2023-08-06T06:59:49;1.43;;;1.10;;
2201;SDS011;1107;48.654;9.250;2023-08-06T07:02:17;1.50;;;0.80;;
2201;SDS011;1107;48.654;9.250;2023-08-06T07:04:44;1.80;;;1.10;;
2201;SDS011;1107;48.654;9.250;2023-08-06T07:07:11;1.60;;;1.10;;
2201;SDS011;1107;48.654;9.250;2023-08-06T07:09:38;1.40;;;0.93;;
2201;SDS011;1107;48.654;9.250;2023-08-06T07:12:05;1.37;;;0.83;;
2201;SDS011;1107;48.654;9.250;2023-08-06T07:14:33;1.40;;;0.97;;
2201;SDS011;1107;48.654;9.250;2023-08-06T07:17:00;1.73;;;0.80;;
2201;SDS011;1107;48.654;9.250;2023-08-06T07:19:28;1.50;;;0.83;;
2201;SDS011;1107;48.654;9.250;2023-08-06T07:21:55;1.50;;;0.80;;
2201;SDS011;1107;48.654;9.250;2023-08-06T07:24:22;1.70;;;0.90;;
2201;SDS011;1107;48.654;9.250;2023-08-06T07:26:49;1.40;;;0.80;;
2201;SDS011;1107;48.654;9.250;2023-08-06T07:29:17;1.40;;;0.70;;
2201;SDS011;1107;48.654;9.250;2023-08-06T07:31:46;1.90;;;1.00;;
2201;SDS011;1107;48.654;9.250;2023-08-06T07:34:14;2.67;;;0.90;;
2201;SDS011;1107;48.654;9.250;2023-08-06T07:36:44;1.30;;;0.70;;
2201;SDS011;1107;48.654;9.250;2023-08-06T07:39:12;1.70;;;0.80;;
2201;SDS011;1107;48.654;9.250;2023-08-06T07:41:39;1.73;;;0.70;;
2201;SDS011;1107;48.654;9.250;2023-08-06T07:44:06;1.97;;;1.17;;
2201;SDS011;1107;48.654;9.250;2023-08-06T07:46:33;2.00;;;0.70;;
2201;SDS011;1107;48.654;9.250;2023-08-06T07:49:00;1.30;;;0.60;;
2201;SDS011;1107;48.654;9.250;2023-08-06T07:51:27;1.40;;;0.70;;
2201;SDS011;1107;48.654;9.250;2023-08-06T07:53:56;1.30;;;0.53;;
2201;SDS011;1107;48.654;9.250;2023-08-06T07:56:23;1.50;;;0.60;;
2201;SDS011;1107;48.654;9.250;2023-08-06T07:58:50;1.70;;;0.77;;
2201;SDS011;1107;48.654;9.250;2023-08-06T08:01:16;1.60;;;0.80;;
2201;SDS011;1107;48.654;9.250;2023-08-06T08:03:43;1.40;;;0.70;;
2201;SDS011;1107;48.654;9.250;2023-08-06T08:06:10;1.30;;;0.60;;
2201;SDS011;1107;48.654;9.250;2023-08-06T08:08:37;1.40;;;0.60;;
2201;SDS011;1107;48.654;9.250;2023-08-06T08:11:06;1.40;;;0.70;;
2201;SDS011;1107;48.654;9.250;2023-08-06T08:13:33;2.07;;;0.80;;
2201;SDS011;1107;48.654;9.250;2023-08-06T08:16:00;1.30;;;0.60;;
2201;SDS011;1107;48.654;9.250;2023-08-06T08:18:27;3.40;;;0.70;;
2201;SDS011;1107;48.654;9.250;2023-08-06T08:20:56;1.77;;;0.60;;
2201;SDS011;1107;48.654;9.250;2023-08-06T08:23:23;1.37;;;0.50;;
2201;SDS011;1107;48.654;9.250;2023-08-06T08:25:50;1.40;;;0.60;;
2201;SDS011;1107;48.654;9.250;2023-08-06T08:28:18;1.20;;;0.50;;
2201;SDS011;1107;48.654;9.250;2023-08-06T08:30:45;1.20;;;0.50;;
2201;SDS011;1107;48.654;9.250;2023-08-06T08:33:12;1.20;;;0.50;;
2201;SDS011;1107;48.654;9.250;2023-08-06T08:35:39;1.30;;;0.53;;
2201;SDS011;1107;48.654;9.250;2023-08-06T08:38:06;1.20;;;0.50;;
2201;SDS011;1107;48.654;9.250;2023-08-06T08:40:33;1.27;;;0.50;;
2201;SDS011;1107;48.654;9.250;2023-08-06T08:43:07;1.70;;;0.60;;
2201;SDS011;1107;48.654;9.250;2023-08-06T08:45:36;1.20;;;0.50;;
2201;SDS011;1107;48.654;9.250;2023-08-06T08:48:07;1.30;;;0.50;;
2201;SDS011;1107;48.654;9.250;2023-08-06T08:50:39;1.50;;;0.50;;
2201;SDS011;1107;48.654;9.250;2023-08-06T08:53:06;1.20;;;0.50;;
2201;SDS011;1107;48.654;9.250;2023-08-06T08:55:34;1.30;;;0.60;;
2201;SDS011;1107;48.654;9.250;2023-08-06T08:58:01;1.20;;;0.50;;
2201;SDS011;1107;48.654;9.250;2023-08-06T09:00:28;1.20;;;0.50;;
2201;SDS011;1107;48.654;9.250;2023-08-06T09:02:57;1.33;;;0.73;;
2201;SDS011;1107;48.654;9.250;2023-08-06T09:05:26;1.20;;;0.50;;
2201;SDS011;1107;48.654;9.250;2023-08-06T09:07:57;1.30;;;0.50;;
2201;SDS011;1107;48.654;9.250;2023-08-06T09:10:28;1.40;;;0.50;;
2201;SDS011;1107;48.654;9.250;2023-08-06T09:12:55;1.40;;;0.50;;
2201;SDS011;1107;48.654;9.250;2023-08-06T09:15:23;1.20;;;0.50;;
2201;SDS011;1107;48.654;9.250;2023-08-06T09:17:51;1.20;;;0.50;;
2201;SDS011;1107;48.654;9.250;2023-08-06T09:20:20;1.20;;;0.50;;
2201;SDS011;1107;48.654;9.250;2023-08-06T09:22:47;1.30;;;0.53;;
2201;SDS011;1107;48.654;9.250;2023-08-06T09:25:19;1.20;;;0.60;;
2201;SDS011;1107;48.654;9.250;2023-08-06T09:27:49;1.33;;;0.60;;
2201;SDS011;1107;48.654;9.250;2023-08-06T09:30:28;1.20;;;0.53;;
2201;SDS011;1107;48.654;9.250;2023-08-06T09:32:56;2.33;;;0.50;;
2201;SDS011;1107;48.654;9.250;2023-08-06T09:35:25;1.30;;;0.50;;
2201;SDS011;1107;48.654;9.250;2023-08-06T09:37:54;1.20;;;0.50;;
2201;SDS011;1107;48.654;9.250;2023-08-06T09:40:27;1.20;;;0.47;;
2201;SDS011;1107;48.654;9.250;2023-08-06T09:42:55;1.20;;;0.50;;
2201;SDS011;1107;48.654;9.250;2023-08-06T09:45:22;1.20;;;0.50;;
2201;SDS011;1107;48.654;9.250;2023-08-06T09:47:49;1.20;;;0.50;;
2201;SDS011;1107;48.654;9.250;2023-08-06T09:50:17;1.30;;;0.50;;
2201;SDS011;1107;48.654;9.250;2023-08-06T09:52:46;1.20;;;0.50;;
2201;SDS011;1107;48.654;9.250;2023-08-06T09:55:13;1.33;;;0.57;;
2201;SDS011;1107;48.654;9.250;2023-08-06T09:57:42;1.30;;;0.60;;
2201;SDS011;1107;48.654;9.250;2023-08-06T10:00:10;1.30;;;0.60;;
2201;SDS011;1107;48.654;9.250;2023-08-06T10:02:38;1.30;;;0.80;;
2201;SDS011;1107;48.654;9.250;2023-08-06T10:05:07;1.73;;;0.60;;
2201;SDS011;1107;48.654;9.250;2023-08-06T10:07:34;1.30;;;0.60;;
2201;SDS011;1107;48.654;9.250;2023-08-06T10:10:03;1.50;;;0.60;;
2201;SDS011;1107;48.654;9.250;2023-08-06T10:12:32;1.23;;;0.50;;
2201;SDS011;1107;48.654;9.250;2023-08-06T10:15:01;2.60;;;0.60;;
2201;SDS011;1107;48.654;9.250;2023-08-06T10:17:32;1.20;;;0.50;;
2201;SDS011;1107;48.654;9.250;2023-08-06T10:20:00;1.20;;;0.50;;
2201;SDS011;1107;48.654;9.250;2023-08-06T10:22:29;1.30;;;0.53;;
2201;SDS011;1107;48.654;9.250;2023-08-06T10:24:59;1.30;;;0.60;;
2201;SDS011;1107;48.654;9.250;2023-08-06T10:27:31;2.17;;;1.33;;
2201;SDS011;1107;48.654;9.250;2023-08-06T10:32:48;1.20;;;0.50;;
2201;SDS011;1107;48.654;9.250;2023-08-06T10:35:29;1.33;;;0.50;;
2201;SDS011;1107;48.654;9.250;2023-08-06T10:37:58;1.30;;;0.50;;
2201;SDS011;1107;48.654;9.250;2023-08-06T10:40:26;1.40;;;0.50;;
2201;SDS011;1107;48.654;9.250;2023-08-06T10:42:55;1.23;;;0.53;;
2201;SDS011;1107;48.654;9.250;2023-08-06T10:45:24;1.20;;;0.50;;
2201;SDS011;1107;48.654;9.250;2023-08-06T10:47:54;1.40;;;0.70;;
2201;SDS011;1107;48.654;9.250;2023-08-06T10:50:22;1.30;;;0.60;;
2201;SDS011;1107;48.654;9.250;2023-08-06T10:52:50;1.20;;;0.40;;
2201;SDS011;1107;48.654;9.250;2023-08-06T10:55:24;1.40;;;0.60;;
2201;SDS011;1107;48.654;9.250;2023-08-06T10:57:52;1.60;;;0.50;;
2201;SDS011;1107;48.654;9.250;2023-08-06T11:00:21;1.53;;;0.70;;
2201;SDS011;1107;48.654;9.250;2023-08-06T11:02:49;1.20;;;0.50;;
2201;SDS011;1107;48.654;9.250;2023-08-06T11:05:16;1.27;;;0.53;;
2201;SDS011;1107;48.654;9.250;2023-08-06T11:07:43;1.20;;;0.50;;
2201;SDS011;1107;48.654;9.250;2023-08-06T11:10:13;1.50;;;0.60;;
2201;SDS011;1107;48.654;9.250;2023-08-06T11:12:40;1.50;;;0.60;;
2201;SDS011;1107;48.654;9.250;2023-08-06T11:15:07;1.27;;;0.50;;
2201;SDS011;1107;48.654;9.250;2023-08-06T11:17:36;1.40;;;0.53;;
2201;SDS011;1107;48.654;9.250;2023-08-06T11:20:05;1.30;;;0.60;;
2201;SDS011;1107;48.654;9.250;2023-08-06T11:22:33;1.27;;;0.60;;
2201;SDS011;1107;48.654;9.250;2023-08-06T11:25:00;1.30;;;0.50;;
2201;SDS011;1107;48.654;9.250;2023-08-06T11:27:27;1.30;;;0.60;;
2201;SDS011;1107;48.654;9.250;2023-08-06T11:29:54;1.30;;;0.60;;
2201;SDS011;1107;48.654;9.250;2023-08-06T11:32:21;1.37;;;0.60;;
2201;SDS011;1107;48.654;9.250;2023-08-06T11:34:50;1.37;;;0.50;;
2201;SDS011;1107;48.654;9.250;2023-08-06T11:37:20;2.07;;;0.70;;
2201;SDS011;1107;48.654;9.250;2023-08-06T11:39:49;1.30;;;0.50;;
2201;SDS011;1107;48.654;9.250;2023-08-06T11:42:16;1.30;;;0.50;;
2201;SDS011;1107;48.654;9.250;2023-08-06T11:44:43;1.30;;;0.60;;
2201;SDS011;1107;48.654;9.250;2023-08-06T11:47:12;1.30;;;0.60;;
2201;SDS011;1107;48.654;9.250;2023-08-06T11:49:41;1.30;;;0.60;;
2201;SDS011;1107;48.654;9.250;2023-08-06T11:52:13;1.30;;;0.60;;
2201;SDS011;1107;48.654;9.250;2023-08-06T11:54:43;1.50;;;0.80;;
2201;SDS011;1107;48.654;9.250;2023-08-06T11:57:11;1.40;;;0.70;;
2201;SDS011;1107;48.654;9.250;2023-08-06T11:59:38;1.40;;;0.70;;
2201;SDS011;1107;48.654;9.250;2023-08-06T12:02:08;1.40;;;0.60;;
2201;SDS011;1107;48.654;9.250;2023-08-06T12:07:31;1.30;;;0.60;;
2201;SDS011;1107;48.654;9.250;2023-08-06T12:09:59;1.20;;;0.60;;
2201;SDS011;1107;48.654;9.250;2023-08-06T12:12:26;4.00;;;1.73;;
2201;SDS011;1107;48.654;9.250;2023-08-06T12:14:54;1.40;;;0.77;;
2201;SDS011;1107;48.654;9.250;2023-08-06T12:17:21;1.40;;;0.73;;
2201;SDS011;1107;48.654;9.250;2023-08-06T12:19:48;1.50;;;0.80;;
2201;SDS011;1107;48.654;9.250;2023-08-06T12:22:15;1.40;;;1.03;;
2201;SDS011;1107;48.654;9.250;2023-08-06T12:24:43;1.30;;;0.70;;
2201;SDS011;1107;48.654;9.250;2023-08-06T12:27:12;1.40;;;0.80;;
2201;SDS011;1107;48.654;9.250;2023-08-06T12:29:40;1.30;;;0.77;;
2201;SDS011;1107;48.654;9.250;2023-08-06T12:32:08;1.30;;;0.70;;
2201;SDS011;1107;48.654;9.250;2023-08-06T12:34:35;1.40;;;0.73;;
2201;SDS011;1107;48.654;9.250;2023-08-06T12:37:04;1.40;;;0.80;;
2201;SDS011;1107;48.654;9.250;2023-08-06T12:39:31;1.30;;;0.70;;
2201;SDS011;1107;48.654;9.250;2023-08-06T12:41:59;1.30;;;0.67;;
2201;SDS011;1107;48.654;9.250;2023-08-06T12:44:26;1.40;;;0.80;;
2201;SDS011;1107;48.654;9.250;2023-08-06T12:46:54;1.43;;;1.00;;
2201;SDS011;1107;48.654;9.250;2023-08-06T12:49:21;1.40;;;0.73;;
2201;SDS011;1107;48.654;9.250;2023-08-06T12:51:48;1.40;;;1.03;;
2201;SDS011;1107;48.654;9.250;2023-08-06T12:54:16;1.70;;;0.93;;
2201;SDS011;1107;48.654;9.250;2023-08-06T12:56:43;1.50;;;0.97;;
2201;SDS011;1107;48.654;9.250;2023-08-06T12:59:13;1.40;;;0.90;;
2201;SDS011;1107;48.654;9.250;2023-08-06T13:01:41;1.83;;;0.90;;
2201;SDS011;1107;48.654;9.250;2023-08-06T13:04:08;1.40;;;0.90;;
2201;SDS011;1107;48.654;9.250;2023-08-06T13:06:35;1.50;;;1.07;;
2201;SDS011;1107;48.654;9.250;2023-08-06T13:09:04;2.73;;;0.97;;
2201;SDS011;1107;48.654;9.250;2023-08-06T13:11:32;1.30;;;0.70;;
2201;SDS011;1107;48.654;9.250;2023-08-06T13:14:00;1.40;;;0.90;;
2201;SDS011;1107;48.654;9.250;2023-08-06T13:16:32;1.50;;;0.90;;
2201;SDS011;1107;48.654;9.250;2023-08-06T13:18:59;1.40;;;0.80;;
2201;SDS011;1107;48.654;9.250;2023-08-06T13:21:32;1.40;;;0.90;;
2201;SDS011;1107;48.654;9.250;2023-08-06T13:24:00;1.40;;;1.00;;
2201;SDS011;1107;48.654;9.250;2023-08-06T13:26:27;1.77;;;1.00;;
2201;SDS011;1107;48.654;9.250;2023-08-06T13:28:54;1.30;;;0.80;;
2201;SDS011;1107;48.654;9.250;2023-08-06T13:31:22;1.80;;;1.20;;
2201;SDS011;1107;48.654;9.250;2023-08-06T13:33:51;1.50;;;1.03;;
2201;SDS011;1107;48.654;9.250;2023-08-06T13:36:19;3.50;;;0.90;;
2201;SDS011;1107;48.654;9.250;2023-08-06T13:38:46;1.30;;;0.90;;
2201;SDS011;1107;48.654;9.250;2023-08-06T13:41:13;1.50;;;0.90;;
2201;SDS011;1107;48.654;9.250;2023-08-06T13:43:40;1.30;;;0.60;;
2201;SDS011;1107;48.654;9.250;2023-08-06T13:46:07;1.30;;;0.70;;
2201;SDS011;1107;48.654;9.250;2023-08-06T13:48:34;1.50;;;0.90;;
2201;SDS011;1107;48.654;9.250;2023-08-06T13:51:02;1.33;;;0.80;;
2201;SDS011;1107;48.654;9.250;2023-08-06T13:53:29;1.40;;;0.80;;
2201;SDS011;1107;48.654;9.250;2023-08-06T13:55:56;1.50;;;0.90;;
2201;SDS011;1107;48.654;9.250;2023-08-06T13:58:23;1.30;;;0.70;;
2201;SDS011;1107;48.654;9.250;2023-08-06T14:00:51;1.70;;;1.00;;
2201;SDS011;1107;48.654;9.250;2023-08-06T14:03:19;1.40;;;1.10;;
2201;SDS011;1107;48.654;9.250;2023-08-06T14:05:46;1.37;;;0.83;;
2201;SDS011;1107;48.654;9.250;2023-08-06T14:08:14;1.60;;;0.83;;
2201;SDS011;1107;48.654;9.250;2023-08-06T14:10:43;1.40;;;0.87;;
2201;SDS011;1107;48.654;9.250;2023-08-06T14:13:10;1.40;;;0.80;;
2201;SDS011;1107;48.654;9.250;2023-08-06T14:15:37;1.50;;;1.00;;
2201;SDS011;1107;48.654;9.250;2023-08-06T14:18:05;1.40;;;1.00;;
2201;SDS011;1107;48.654;9.250;2023-08-06T14:20:33;2.00;;;1.00;;
2201;SDS011;1107;48.654;9.250;2023-08-06T14:23:00;1.40;;;0.83;;
2201;SDS011;1107;48.654;9.250;2023-08-06T14:25:28;1.40;;;0.87;;
2201;SDS011;1107;48.654;9.250;2023-08-06T14:27:55;6.03;;;0.87;;
2201;SDS011;1107;48.654;9.250;2023-08-06T14:30:22;1.70;;;0.90;;
2201;SDS011;1107;48.654;9.250;2023-08-06T14:32:49;1.33;;;0.80;;
2201;SDS011;1107;48.654;9.250;2023-08-06T14:35:16;1.63;;;0.80;;
2201;SDS011;1107;48.654;9.250;2023-08-06T14:37:43;12.33;;;1.10;;
2201;SDS011;1107;48.654;9.250;2023-08-06T14:40:11;1.40;;;0.80;;
2201;SDS011;1107;48.654;9.250;2023-08-06T14:42:39;2.17;;;0.83;;
2201;SDS011;1107;48.654;9.250;2023-08-06T14:45:06;2.63;;;0.83;;
2201;SDS011;1107;48.654;9.250;2023-08-06T14:47:33;1.50;;;0.97;;
2201;SDS011;1107;48.654;9.250;2023-08-06T14:50:00;24.40;;;1.00;;
2201;SDS011;1107;48.654;9.250;2023-08-06T14:52:27;1.40;;;0.93;;
2201;SDS011;1107;48.654;9.250;2023-08-06T14:54:54;1.47;;;1.00;;
2201;SDS011;1107;48.654;9.250;2023-08-06T14:57:21;5.37;;;1.23;;
2201;SDS011;1107;48.654;9.250;2023-08-06T14:59:54;1.60;;;1.20;;
2201;SDS011;1107;48.654;9.250;2023-08-06T15:02:21;1.70;;;1.10;;
2201;SDS011;1107;48.654;9.250;2023-08-06T15:04:48;1.73;;;0.97;;
2201;SDS011;1107;48.654;9.250;2023-08-06T15:07:15;3.30;;;1.00;;
2201;SDS011;1107;48.654;9.250;2023-08-06T15:09:42;1.40;;;0.87;;
2201;SDS011;1107;48.654;9.250;2023-08-06T15:12:10;1.50;;;1.00;;
2201;SDS011;1107;48.654;9.250;2023-08-06T15:14:37;1.40;;;0.80;;
2201;SDS011;1107;48.654;9.250;2023-08-06T15:17:06;1.40;;;0.83;;
2201;SDS011;1107;48.654;9.250;2023-08-06T15:19:32;1.40;;;0.70;;
2201;SDS011;1107;48.654;9.250;2023-08-06T15:21:59;1.53;;;1.00;;
2201;SDS011;1107;48.654;9.250;2023-08-06T15:24:26;1.40;;;0.80;;